Time;durP1;ratioP1;P1;durP2;ratioP2;P2;SDS_P1;SDS_P2;PMS_P1;PMS_P2;Temp;Humidity;BMP_temperature;BMP_pressure;BME280_temperature;BME280_humidity;BME280_pressure;Samples;Min_cycle;Max_cycle;Signal;HPM_P1;HPM_P2
2022/11/28 00:02:11;;;;;;;3.45;1.10;;;-1.30;99.90;;;;;;20267739;23;20049;-57
2022/11/28 00:12:15;;;;;;;3.22;1.65;;;-1.30;99.90;;;;;;20149760;23;20568;-56
2022/11/28 00:22:18;;;;;;;2.05;1.30;;;-1.10;99.90;;;;;;20247647;23;20401;-55
2022/11/28 00:32:20;;;;;;;3.85;1.50;;;-0.80;99.90;;;;;;20266249;23;20057;-55
2022/11/28 00:53:29;;;;;;;2.05;1.40;;;-0.50;99.90;;;;;;20305345;23;20113;-58
2022/11/28 01:03:32;;;;;;;3.72;1.38;;;-0.40;99.90;;;;;;20232040;23;20473;-54
2022/11/28 01:13:35;;;;;;;4.03;1.80;;;-0.40;99.90;;;;;;20258702;23;20114;-52
2022/11/28 01:23:44;;;;;;;2.80;1.60;;;-0.40;99.90;;;;;;20199395;23;20504;31
2022/11/28 01:33:46;;;;;;;2.92;1.33;;;-0.40;99.90;;;;;;20179531;23;20066;-58
2022/11/28 01:44:39;;;;;;;3.17;1.58;;;-0.30;99.90;;;;;;20264626;23;20124;-57
2022/11/28 01:55:02;;;;;;;4.30;2.05;;;-0.30;99.90;;;;;;20204126;23;20081;-53
2022/11/28 02:05:06;;;;;;;3.63;1.88;;;-0.20;99.90;;;;;;20087765;23;20107;-57
2022/11/28 02:15:20;;;;;;;3.25;1.92;;;-0.30;99.90;;;;;;20234165;23;20524;-51
2022/11/28 02:26:04;;;;;;;3.17;1.92;;;-0.40;99.90;;;;;;20238045;23;20054;-60
2022/11/28 02:36:24;;;;;;;3.97;2.42;;;-0.40;99.90;;;;;;20253184;23;20057;-53
2022/11/28 02:46:35;;;;;;;5.57;2.10;;;-0.50;99.90;;;;;;20226454;23;20054;-55
2022/11/28 02:56:38;;;;;;;5.63;2.58;;;-0.40;99.90;;;;;;20241712;23;20118;-54
2022/11/28 03:07:03;;;;;;;6.05;2.70;;;-0.40;99.90;;;;;;20219655;23;20540;-52
2022/11/28 03:17:17;;;;;;;5.82;2.55;;;-0.30;99.90;;;;;;20220656;23;20100;-57
2022/11/28 03:27:33;;;;;;;4.85;2.70;;;-0.20;99.90;;;;;;20243625;23;20069;-52
2022/11/28 03:37:46;;;;;;;4.85;2.80;;;-0.10;99.90;;;;;;20247379;23;20046;-57
2022/11/28 03:48:09;;;;;;;5.45;3.03;;;-0.10;99.90;;;;;;20175520;23;20070;-58
2022/11/28 03:59:03;;;;;;;5.93;3.30;;;-0.10;99.90;;;;;;20191853;23;20062;-54
2022/11/28 04:09:13;;;;;;;6.05;3.00;;;-0.10;99.90;;;;;;20239252;23;20029;-53
2022/11/28 04:19:27;;;;;;;6.10;3.37;;;-0.10;99.90;;;;;;20220795;23;20057;31
2022/11/28 04:29:46;;;;;;;5.43;3.05;;;0.00;99.90;;;;;;20112610;23;1942047;-60
2022/11/28 04:39:51;;;;;;;5.80;3.10;;;0.00;99.90;;;;;;20193903;23;20067;-53
2022/11/28 04:49:54;;;;;;;6.75;2.92;;;0.10;99.90;;;;;;20231995;23;20113;-60
2022/11/28 05:00:00;;;;;;;5.38;3.30;;;0.10;99.90;;;;;;20264404;23;20062;-55
2022/11/28 05:10:04;;;;;;;5.45;3.75;;;0.10;99.90;;;;;;20235882;23;20050;-61
2022/11/28 05:20:07;;;;;;;6.95;3.95;;;0.00;99.90;;;;;;20238514;23;20042;-52
2022/11/28 05:30:25;;;;;;;7.55;3.95;;;0.00;99.90;;;;;;20202633;23;20057;-55
2022/11/28 05:40:28;;;;;;;5.78;3.45;;;0.00;99.90;;;;;;20206785;23;20118;-57
2022/11/28 05:50:30;;;;;;;5.07;2.97;;;0.10;99.90;;;;;;20253860;23;20519;-52
2022/11/28 06:00:32;;;;;;;4.28;2.55;;;0.20;99.90;;;;;;20211641;23;20049;-61
2022/11/28 06:10:35;;;;;;;6.63;2.67;;;0.30;99.90;;;;;;20231115;23;20125;-67
2022/11/28 06:20:39;;;;;;;6.05;3.15;;;0.20;99.90;;;;;;20255652;23;20058;-60
2022/11/28 06:30:42;;;;;;;5.97;3.50;;;0.30;99.90;;;;;;20207116;23;20115;-61
2022/11/28 06:40:45;;;;;;;4.88;2.80;;;0.40;99.90;;;;;;20205492;23;20062;-54
2022/11/28 06:50:47;;;;;;;5.35;3.08;;;0.40;99.90;;;;;;21029963;23;20465;-55
2022/11/28 07:00:49;;;;;;;6.80;3.30;;;0.40;99.90;;;;;;20207632;23;20061;-59
2022/11/28 07:10:53;;;;;;;5.05;3.13;;;0.40;99.90;;;;;;20237939;23;20110;-64
2022/11/28 07:20:55;;;;;;;4.93;2.40;;;0.40;99.90;;;;;;20195493;23;20062;-64
2022/11/28 07:31:02;;;;;;;4.07;2.67;;;0.60;99.90;;;;;;20231617;23;20065;-59
2022/11/28 07:41:11;;;;;;;5.05;2.67;;;0.80;99.90;;;;;;20215567;23;20065;-57
2022/11/28 07:51:19;;;;;;;5.22;3.38;;;0.90;99.90;;;;;;20261845;23;20058;-59
2022/11/28 08:01:25;;;;;;;7.47;4.10;;;1.10;99.90;;;;;;20242931;23;20214;-55
2022/11/28 08:11:31;;;;;;;6.40;3.97;;;1.30;99.90;;;;;;20226348;23;20561;-58
2022/11/28 08:21:34;;;;;;;5.57;3.42;;;1.40;99.90;;;;;;20209525;23;20061;-59
2022/11/28 08:31:38;;;;;;;5.95;3.30;;;1.70;99.90;;;;;;20247411;23;20062;-55
2022/11/28 08:41:40;;;;;;;4.72;2.80;;;2.10;99.90;;;;;;20236816;23;20053;-61
2022/11/28 08:51:43;;;;;;;6.30;3.90;;;2.40;99.90;;;;;;20215251;23;20066;-54
2022/11/28 09:01:45;;;;;;;5.22;3.38;;;2.60;99.90;;;;;;20248751;23;20037;-60
2022/11/28 09:11:48;;;;;;;6.40;3.55;;;2.80;99.90;;;;;;20197081;23;20061;-57
2022/11/28 09:22:24;;;;;;;3.95;2.47;;;2.90;99.90;;;;;;20274252;23;20037;-48
2022/11/28 09:32:27;;;;;;;3.92;1.70;;;3.00;99.90;;;;;;20538141;23;20110;-58
2022/11/28 09:42:42;;;;;;;5.22;3.13;;;3.50;99.90;;;;;;20237295;23;20058;-55
2022/11/28 09:52:52;;;;;;;4.30;2.80;;;3.80;99.90;;;;;;20238203;23;20054;-60
2022/11/28 10:03:03;;;;;;;4.68;2.92;;;3.60;99.90;;;;;;20274118;23;20423;-57
2022/11/28 10:13:26;;;;;;;4.82;3.10;;;3.70;99.90;;;;;;20202581;23;20062;-60
2022/11/28 10:23:42;;;;;;;5.32;3.20;;;3.70;99.90;;;;;;20250720;23;20357;-54
2022/11/28 10:34:18;;;;;;;4.35;2.90;;;4.00;99.90;;;;;;20296766;23;20049;-58
2022/11/28 10:44:33;;;;;;;5.53;3.13;;;4.20;99.90;;;;;;20192090;23;20029;-56
2022/11/28 10:54:38;;;;;;;5.85;3.22;;;4.20;99.90;;;;;;20248947;23;20058;-59
2022/11/28 11:04:41;;;;;;;5.80;2.83;;;4.20;99.90;;;;;;20186481;23;20049;-60
2022/11/28 11:14:43;;;;;;;4.80;3.13;;;4.10;99.90;;;;;;20238333;23;20581;-57
2022/11/28 11:25:11;;;;;;;4.10;2.90;;;3.90;99.90;;;;;;20262567;23;20061;-60
2022/11/28 11:35:22;;;;;;;4.70;3.13;;;3.90;99.90;;;;;;20331127;23;20058;-54
2022/11/28 11:45:24;;;;;;;;;;;3.90;99.90;;;;;;20234915;23;20049;-60
2022/11/28 11:55:30;;;;;;;4.32;2.75;;;4.20;99.90;;;;;;20225397;23;19922;-56
2022/11/28 12:06:04;;;;;;;5.05;3.00;;;4.50;99.90;;;;;;20190765;23;20569;31
2022/11/28 12:16:21;;;;;;;5.95;2.97;;;4.50;99.90;;;;;;20159213;23;20100;-53
2022/11/28 12:27:04;;;;;;;4.70;3.08;;;4.40;99.90;;;;;;20141286;23;20063;-57
2022/11/28 12:37:31;;;;;;;3.78;2.80;;;4.30;99.90;;;;;;20220006;23;20078;-55
2022/11/28 12:48:15;;;;;;;4.50;2.50;;;4.10;99.90;;;;;;20597436;23;20073;-58
2022/11/28 12:58:50;;;;;;;5.60;2.92;;;3.90;99.90;;;;;;20254741;23;20054;-56
2022/11/28 13:09:12;;;;;;;5.35;3.10;;;3.80;99.90;;;;;;20194810;23;20109;-60
2022/11/28 13:19:24;;;;;;;3.80;2.65;;;3.50;99.90;;;;;;20186874;23;1258504;-52
2022/11/28 13:29:51;;;;;;;3.92;2.50;;;3.20;99.90;;;;;;20224956;23;20079;-60
2022/11/28 13:40:03;;;;;;;6.30;3.10;;;3.20;99.90;;;;;;20255184;23;20046;-53
2022/11/28 13:50:37;;;;;;;3.92;2.55;;;3.00;99.90;;;;;;20206801;23;20416;31
2022/11/28 14:00:39;;;;;;;5.63;3.47;;;2.80;99.90;;;;;;20161305;23;20058;-55
2022/11/28 14:11:06;;;;;;;7.45;2.92;;;2.50;99.90;;;;;;20216771;23;20488;-53
2022/11/28 14:21:15;;;;;;;4.70;2.80;;;2.20;99.90;;;;;;20153099;23;20062;-60
2022/11/28 14:31:45;;;;;;;4.93;2.65;;;2.10;99.90;;;;;;20257996;23;20069;-52
2022/11/28 14:42:06;;;;;;;4.38;2.58;;;2.00;99.90;;;;;;20101937;23;20133;-59
2022/11/28 14:52:23;;;;;;;4.97;2.40;;;2.00;99.90;;;;;;20228092;23;20106;-52
2022/11/28 15:02:33;;;;;;;3.50;1.90;;;1.90;99.90;;;;;;20226846;23;20048;-60
2022/11/28 15:12:51;;;;;;;4.32;2.25;;;1.70;99.90;;;;;;20265751;23;20058;-65
2022/11/28 15:22:53;;;;;;;7.07;2.85;;;1.50;99.90;;;;;;20219757;23;20049;-60
2022/11/28 15:33:00;;;;;;;6.93;3.40;;;1.20;99.90;;;;;;20221826;23;20025;-54
2022/11/28 15:43:13;;;;;;;4.75;2.80;;;1.00;99.90;;;;;;20164605;23;20119;31
2022/11/28 15:53:17;;;;;;;5.35;2.80;;;0.70;99.90;;;;;;20142455;23;20058;-60
2022/11/28 16:03:25;;;;;;;6.32;3.00;;;0.60;99.90;;;;;;20231510;23;20061;-54
2022/11/28 16:13:31;;;;;;;5.07;2.60;;;0.60;99.90;;;;;;20206008;23;20053;-60
2022/11/28 16:23:36;;;;;;;3.92;2.30;;;0.50;99.90;;;;;;20243820;23;20123;-56
2022/11/28 16:33:40;;;;;;;5.13;2.30;;;0.40;99.90;;;;;;20253507;23;21813;-55
2022/11/28 16:44:04;;;;;;;4.28;2.35;;;0.40;99.90;;;;;;20194853;23;20098;31
2022/11/28 16:54:26;;;;;;;5.00;2.17;;;0.40;99.90;;;;;;20174098;23;20412;-60
2022/11/28 17:04:45;;;;;;;4.95;2.42;;;0.40;99.90;;;;;;20197678;23;20121;-55
2022/11/28 17:14:47;;;;;;;3.38;2.03;;;0.30;99.90;;;;;;20231154;23;20159;-60
2022/11/28 17:24:56;;;;;;;2.63;1.80;;;0.40;99.90;;;;;;20243888;23;20065;-56
2022/11/28 17:35:03;;;;;;;3.70;1.92;;;0.40;99.90;;;;;;20233634;23;20054;-56
2022/11/28 17:45:14;;;;;;;2.53;1.48;;;0.30;99.90;;;;;;20238250;23;20393;-53
2022/11/28 17:55:19;;;;;;;1.77;1.13;;;0.20;99.90;;;;;;20244271;23;20110;-59
2022/11/28 18:05:23;;;;;;;2.20;1.30;;;0.20;99.90;;;;;;20207585;23;20126;-51
2022/11/28 18:15:26;;;;;;;3.13;1.30;;;0.10;99.90;;;;;;20218466;23;20054;-53
2022/11/28 18:25:29;;;;;;;3.35;1.20;;;0.10;99.90;;;;;;20251596;23;20058;-57
2022/11/28 18:35:32;;;;;;;2.92;1.52;;;0.00;99.90;;;;;;21155710;23;20116;-59
2022/11/28 18:45:36;;;;;;;3.35;1.30;;;0.00;99.90;;;;;;20267251;23;20061;-52
2022/11/28 18:55:39;;;;;;;2.63;1.27;;;0.10;99.90;;;;;;20250532;23;20067;-59
2022/11/28 19:26:29;;;;;;;3.05;1.45;;;-0.10;99.90;;;;;;20199015;23;20212;-54
2022/11/28 19:36:45;;;;;;;3.42;1.55;;;-0.10;99.90;;;;;;20242107;23;20125;-60
2022/11/28 19:46:49;;;;;;;1.95;1.13;;;-0.20;99.90;;;;;;20243772;23;20087;-54
2022/11/28 19:56:53;;;;;;;2.15;1.13;;;-0.30;99.90;;;;;;21038036;23;20066;-55
2022/11/28 20:06:56;;;;;;;2.40;1.25;;;-0.30;99.90;;;;;;20245154;23;20453;-60
2022/11/28 20:17:00;;;;;;;3.33;1.45;;;-0.30;99.90;;;;;;20225383;23;20057;31
2022/11/28 20:27:03;;;;;;;2.20;1.17;;;-0.30;99.90;;;;;;20139693;23;20050;-53
2022/11/28 20:37:05;;;;;;;4.72;3.45;;;-0.30;99.90;;;;;;20261661;23;20381;-55
2022/11/28 20:47:09;;;;;;;3.08;1.58;;;-0.40;99.90;;;;;;20229053;23;20054;-51
2022/11/28 20:57:12;;;;;;;3.35;1.65;;;-0.40;99.90;;;;;;20204471;23;20109;-59
2022/11/28 21:07:15;;;;;;;5.35;2.22;;;-0.50;99.90;;;;;;20251355;23;20086;-55
2022/11/28 21:17:17;;;;;;;4.38;2.03;;;-0.50;99.90;;;;;;20198062;23;20118;-52
2022/11/28 21:27:20;;;;;;;3.30;1.52;;;-0.50;99.90;;;;;;20228553;23;20054;-59
2022/11/28 21:37:23;;;;;;;4.40;2.15;;;-0.50;99.90;;;;;;20240648;23;20095;-53
2022/11/28 21:47:25;;;;;;;3.90;2.05;;;-0.60;99.90;;;;;;20215140;23;20061;-58
2022/11/28 21:57:29;;;;;;;4.82;2.70;;;-0.60;99.90;;;;;;20271719;23;20075;-51
2022/11/28 22:17:50;;;;;;;3.72;2.13;;;-0.50;99.90;;;;;;20133733;23;1210295;-54
2022/11/28 22:27:53;;;;;;;3.97;2.30;;;-0.40;99.90;;;;;;20247508;23;20061;-59
2022/11/28 22:37:55;;;;;;;3.08;1.77;;;-0.30;99.90;;;;;;20232745;23;20170;-54
2022/11/28 22:47:58;;;;;;;2.80;1.52;;;-0.10;99.90;;;;;;20243114;23;20046;-57
2022/11/28 22:58:01;;;;;;;3.28;1.60;;;-0.10;99.90;;;;;;20212294;23;20122;-55
2022/11/28 23:08:03;;;;;;;2.60;1.50;;;-0.20;99.90;;;;;;20204796;23;20054;-53
2022/11/28 23:18:06;;;;;;;2.50;1.30;;;-0.30;99.90;;;;;;20240699;23;20053;-54
2022/11/28 23:28:08;;;;;;;3.40;1.42;;;-0.30;99.90;;;;;;20233358;23;20605;-59
2022/11/28 23:38:11;;;;;;;2.35;1.23;;;-0.30;99.90;;;;;;20238831;23;20095;-53
2022/11/28 23:48:13;;;;;;;4.88;2.58;;;-0.10;99.90;;;;;;20243893;23;20118;-55
2022/11/28 23:58:17;;;;;;;4.22;2.25;;;-0.10;99.90;;;;;;20197304;23;20118;-59
